createdAt,value
2018-06-21T00:00:20.470Z,95669.09
2018-06-21T00:02:52.963Z,95671.23
2018-06-21T00:08:02.234Z,95670.44
2018-06-21T00:10:34.642Z,95666.42
2018-06-21T00:13:07.429Z,95663.44
2018-06-21T00:15:39.512Z,95663.77
2018-06-21T00:18:12.213Z,95657.73
2018-06-21T00:20:43.450Z,95658.36
2018-06-21T00:23:17.635Z,95655.52
2018-06-21T00:28:27.928Z,95651.50
2018-06-21T00:33:43.212Z,95647.00
2018-06-21T00:36:16.429Z,95646.58
2018-06-21T00:38:48.715Z,95648.45
2018-06-21T00:41:21.744Z,95643.70
2018-06-21T00:43:53.434Z,95645.33
2018-06-21T00:46:25.586Z,95640.91
2018-06-21T00:48:58.065Z,95640.82
2018-06-21T00:51:31.308Z,95642.03
2018-06-21T00:54:03.672Z,95641.77
2018-06-21T00:56:37.182Z,95638.28
2018-06-21T01:01:46.026Z,95633.46
2018-06-21T01:06:55.333Z,95634.31
2018-06-21T01:09:28.672Z,95628.41
2018-06-21T01:14:37.586Z,95623.55
2018-06-21T01:17:10.249Z,95623.41
2018-06-21T01:19:42.730Z,95619.77
2018-06-21T01:22:16.540Z,95620.78
2018-06-21T01:24:48.769Z,95620.30
2018-06-21T01:27:21.980Z,95625.92
2018-06-21T01:29:53.958Z,95620.86
2018-06-21T01:35:01.336Z,95615.12
2018-06-21T01:37:35.128Z,95614.91
2018-06-21T01:40:08.030Z,95615.56
2018-06-21T01:42:40.611Z,95615.56
2018-06-21T01:45:15.232Z,95607.85
2018-06-21T01:47:49.378Z,95601.48
2018-06-21T01:52:58.471Z,95587.59
2018-06-21T01:58:05.070Z,95583.66
2018-06-21T02:00:34.173Z,95576.87
2018-06-21T02:03:03.498Z,95583.66
2018-06-21T02:14:08.608Z,95582.46
2018-06-21T02:16:37.632Z,95576.14
2018-06-21T02:19:07.940Z,95581.09
2018-06-21T02:21:38.356Z,95575.05
2018-06-21T02:24:07.399Z,95573.32
2018-06-21T02:31:48.185Z,95563.91
2018-06-21T02:36:53.281Z,95555.87
2018-06-21T02:41:58.208Z,95553.90
2018-06-21T02:44:29.450Z,95553.90
2018-06-21T02:46:58.518Z,95552.86
2018-06-21T02:49:27.591Z,95549.33
2018-06-21T02:51:56.674Z,95547.94
2018-06-21T02:57:02.782Z,95548.63
2018-06-21T02:59:32.928Z,95548.61
2018-06-21T03:02:04.089Z,95545.81
2018-06-21T03:07:09.063Z,95543.25
2018-06-21T03:09:38.105Z,95540.64
2018-06-21T03:12:07.165Z,95546.69
2018-06-21T03:14:36.226Z,95549.16
2018-06-21T03:17:07.390Z,95545.36
2018-06-21T03:24:48.061Z,95550.28
2018-06-21T03:27:17.129Z,95554.87
2018-06-21T03:29:49.180Z,95557.99
2018-06-21T03:32:18.893Z,95558.47
2018-06-21T03:34:48.906Z,95556.16
2018-06-21T03:37:17.965Z,95557.04
2018-06-21T03:39:47.149Z,95561.63
2018-06-21T03:42:16.375Z,95561.73
2018-06-21T03:44:46.416Z,95558.00
2018-06-21T03:47:15.465Z,95554.47
2018-06-21T03:49:44.708Z,95554.42
2018-06-21T03:52:13.809Z,95556.16
2018-06-21T03:54:42.850Z,95552.69
2018-06-21T03:57:11.929Z,95553.44
2018-06-21T04:02:16.701Z,95555.85
2018-06-21T04:04:45.966Z,95560.13
2018-06-21T04:07:15.944Z,95558.30
2018-06-21T04:09:45.033Z,95557.34
2018-06-21T04:12:14.470Z,95555.36
2018-06-21T04:14:43.861Z,95557.41
2018-06-21T04:17:12.920Z,95556.77
2018-06-21T04:19:41.983Z,95552.77
2018-06-21T04:22:11.217Z,95558.75
2018-06-21T04:24:40.311Z,95554.59
2018-06-21T04:27:09.353Z,95552.73
2018-06-21T04:29:38.430Z,95550.57
2018-06-21T04:32:07.732Z,95550.53
2018-06-21T04:34:37.702Z,95549.09
2018-06-21T04:37:07.678Z,95550.98
2018-06-21T04:39:36.750Z,95550.14
2018-06-21T04:42:06.759Z,95551.80
2018-06-21T04:47:11.766Z,95548.33
2018-06-21T04:49:41.251Z,95547.80
2018-06-21T04:52:10.316Z,95545.51
2018-06-21T04:54:39.381Z,95542.22
2018-06-21T04:57:08.774Z,95538.20
2018-06-21T04:59:37.816Z,95537.13
2018-06-21T05:02:06.871Z,95532.30
2018-06-21T05:04:36.333Z,95534.44
2018-06-21T05:09:41.115Z,95535.19
2018-06-21T05:12:10.251Z,95537.87
2018-06-21T05:14:40.205Z,95532.70
2018-06-21T05:17:09.263Z,95536.77
2018-06-21T05:19:38.444Z,95535.06
2018-06-21T05:22:07.743Z,95538.48
2018-06-21T05:24:36.829Z,95530.29
2018-06-21T05:27:05.892Z,95530.42
2018-06-21T05:29:35.050Z,95530.23
2018-06-21T05:32:04.162Z,95530.44
2018-06-21T05:34:33.195Z,95533.77
2018-06-21T05:37:02.360Z,95531.88
2018-06-21T05:39:31.415Z,95529.91
2018-06-21T05:42:00.457Z,95527.47
2018-06-21T05:44:31.969Z,95524.78
2018-06-21T05:52:15.568Z,95524.88
2018-06-21T05:54:51.639Z,95523.79
2018-06-21T05:57:24.756Z,95518.48
2018-06-21T05:59:56.524Z,95526.42
2018-06-21T06:02:28.325Z,95524.48
2018-06-21T06:05:13.372Z,95521.67
2018-06-21T06:07:47.987Z,95523.50
2018-06-21T06:10:19.751Z,95520.72
2018-06-21T06:12:55.080Z,95518.25
2018-06-21T06:15:25.978Z,95516.58
2018-06-21T06:20:33.935Z,95513.23
2018-06-21T06:25:45.396Z,95515.20
2018-06-21T06:30:54.313Z,95512.97
2018-06-21T06:36:05.246Z,95504.50
2018-06-21T06:38:38.709Z,95500.28
2018-06-21T06:41:10.515Z,95503.63
2018-06-21T06:43:42.574Z,95496.89
2018-06-21T06:46:17.170Z,95495.33
2018-06-21T06:48:48.035Z,95499.98
2018-06-21T06:51:29.780Z,95495.87
2018-06-21T06:54:09.313Z,95500.33
2018-06-21T06:56:40.505Z,95504.14
2018-06-21T06:59:24.044Z,95500.72
2018-06-21T07:01:56.446Z,95497.52
2018-06-21T07:04:31.880Z,95488.92
2018-06-21T07:07:04.026Z,95487.02
2018-06-21T07:09:38.587Z,95485.26
2018-06-21T07:12:09.201Z,95485.50
2018-06-21T07:14:42.255Z,95483.44
2018-06-21T07:17:13.492Z,95479.39
2018-06-21T07:19:46.294Z,95478.19
2018-06-21T07:22:16.818Z,95477.70
2018-06-21T07:24:52.341Z,95477.28
2018-06-21T07:27:25.157Z,95473.53
2018-06-21T07:35:10.081Z,95469.67
2018-06-21T07:37:53.453Z,95471.22
2018-06-21T07:40:25.881Z,95465.61
2018-06-21T07:43:03.649Z,95472.33
2018-06-21T07:45:37.725Z,95468.28
2018-06-21T07:48:10.600Z,95466.81
2018-06-21T07:50:42.209Z,95462.48
2018-06-21T07:53:14.464Z,95457.38
2018-06-21T07:55:46.628Z,95453.59
2018-06-21T07:58:19.745Z,95452.11
2018-06-21T08:00:52.130Z,95453.22
2018-06-21T08:03:25.060Z,95447.98
2018-06-21T08:05:57.431Z,95449.31
2018-06-21T08:08:30.665Z,95438.71
2018-06-21T08:13:40.775Z,95434.47
2018-06-21T08:16:13.516Z,95442.63
2018-06-21T08:19:00.027Z,95440.44
2018-06-21T08:21:30.471Z,95433.10
2018-06-21T08:24:04.224Z,95431.00
2018-06-21T08:26:41.217Z,95434.08
2018-06-21T08:29:12.817Z,95436.53
2018-06-21T08:31:46.134Z,95435.13
2018-06-21T08:34:18.940Z,95433.56
2018-06-21T08:36:56.852Z,95430.11
2018-06-21T08:39:31.383Z,95423.07
2018-06-21T08:42:04.707Z,95419.45
2018-06-21T08:44:37.335Z,95419.59
2018-06-21T08:47:09.124Z,95418.88
2018-06-21T08:49:41.784Z,95421.22
2018-06-21T08:52:12.315Z,95425.99
2018-06-21T08:54:44.154Z,95427.84
2018-06-21T08:57:16.449Z,95427.64
2018-06-21T08:59:48.432Z,95425.80
2018-06-21T09:02:20.884Z,95425.50
2018-06-21T09:07:31.585Z,95422.20
2018-06-21T09:10:04.482Z,95417.35
2018-06-21T09:15:11.663Z,95420.95
2018-06-21T09:20:21.378Z,95415.94
2018-06-21T09:22:56.599Z,95413.28
2018-06-21T09:25:44.391Z,95407.00
2018-06-21T09:28:14.591Z,95408.02
2018-06-21T09:30:47.568Z,95414.61
2018-06-21T09:33:19.197Z,95416.68
2018-06-21T09:35:50.949Z,95412.34
2018-06-21T09:38:21.145Z,95410.49
2018-06-21T09:43:32.046Z,95412.77
2018-06-21T09:46:01.431Z,95412.73
2018-06-21T09:48:30.668Z,95409.59
2018-06-21T09:51:01.200Z,95406.28
2018-06-21T09:53:30.269Z,95411.05
2018-06-21T09:56:00.298Z,95423.25
2018-06-21T09:58:29.372Z,95416.14
2018-06-21T10:00:58.663Z,95409.66
2018-06-21T10:03:32.902Z,95419.90
2018-06-21T10:06:01.959Z,95419.76
2018-06-21T10:08:46.429Z,95411.20
2018-06-21T10:11:15.473Z,95413.23
2018-06-21T10:13:50.307Z,95410.55
2018-06-21T10:16:19.361Z,95409.69
2018-06-21T10:18:48.414Z,95409.69
2018-06-21T10:21:17.473Z,95402.03
2018-06-21T10:23:51.111Z,95397.86
2018-06-21T10:26:21.126Z,95392.94
2018-06-21T10:28:51.144Z,95390.94
2018-06-21T10:31:21.280Z,95394.53
2018-06-21T10:33:50.341Z,95389.19
2018-06-21T10:39:07.088Z,95375.28
2018-06-21T10:41:36.282Z,95374.85
2018-06-21T10:44:05.309Z,95370.72
2018-06-21T10:46:34.379Z,95368.91
2018-06-21T10:49:04.593Z,95367.95
2018-06-21T10:51:33.808Z,95364.03
2018-06-21T10:54:03.551Z,95361.31
2018-06-21T10:56:33.516Z,95359.69
2018-06-21T10:59:17.946Z,95354.05
2018-06-21T11:04:27.317Z,95346.89
2018-06-21T11:06:56.601Z,95344.16
2018-06-21T11:09:25.645Z,95349.77
2018-06-21T11:11:54.701Z,95350.93
2018-06-21T11:14:23.865Z,95338.66
2018-06-21T11:16:52.932Z,95337.83
2018-06-21T11:19:22.860Z,95344.13
2018-06-21T11:21:55.712Z,95337.09
2018-06-21T11:24:24.749Z,95330.31
2018-06-21T11:26:54.064Z,95326.23
2018-06-21T11:29:23.167Z,95331.32
2018-06-21T11:32:01.210Z,95333.73
2018-06-21T11:34:30.316Z,95321.10
2018-06-21T11:37:06.738Z,95316.19
2018-06-21T11:39:35.829Z,95313.31
2018-06-21T11:42:06.127Z,95309.64
2018-06-21T11:44:36.044Z,95302.81
2018-06-21T11:47:06.650Z,95311.64
2018-06-21T11:49:36.073Z,95306.59
2018-06-21T11:52:06.330Z,95328.28
2018-06-21T11:54:36.290Z,95319.75
2018-06-21T11:59:41.865Z,95334.83
2018-06-21T12:02:11.642Z,95332.57
2018-06-21T12:04:44.446Z,95342.45
2018-06-21T12:07:14.609Z,95337.72
2018-06-21T12:12:19.729Z,95354.62
2018-06-21T12:14:58.760Z,95364.95
2018-06-21T12:17:34.817Z,95374.25
2018-06-21T12:20:07.003Z,95371.97
2018-06-21T12:22:44.731Z,95362.58
2018-06-21T12:25:24.041Z,95353.06
2018-06-21T12:27:53.637Z,95359.66
2018-06-21T12:30:24.922Z,95355.73
2018-06-21T12:35:31.215Z,95348.30
2018-06-21T12:38:01.052Z,95335.34
2018-06-21T12:40:30.274Z,95334.61
2018-06-21T12:43:00.296Z,95327.81
2018-06-21T12:45:30.700Z,95313.44
2018-06-21T12:48:07.151Z,95310.15
2018-06-21T12:53:12.561Z,95305.10
2018-06-21T12:58:25.011Z,95298.78
2018-06-21T13:01:06.838Z,95282.22
2018-06-21T13:04:01.434Z,95288.64
2018-06-21T13:06:30.474Z,95289.03
2018-06-21T13:14:21.980Z,95286.00
2018-06-21T13:19:43.583Z,95298.30
2018-06-21T13:22:12.644Z,95350.39
2018-06-21T13:27:17.502Z,95361.93
2018-06-21T13:29:47.522Z,95360.70
2018-06-21T13:34:53.382Z,95349.98
2018-06-21T13:37:22.423Z,95354.30
2018-06-21T13:39:52.502Z,95349.45
2018-06-21T13:42:21.552Z,95345.41
2018-06-21T13:44:54.927Z,95344.20
2018-06-21T13:47:24.174Z,95341.50
2018-06-21T13:49:53.201Z,95333.73
2018-06-21T13:52:31.496Z,95327.06
2018-06-21T13:55:04.483Z,95330.61
2018-06-21T13:57:45.413Z,95327.22
2018-06-21T14:00:18.459Z,95319.93
2018-06-21T14:02:51.024Z,95308.27
2018-06-21T14:05:24.282Z,95311.38
2018-06-21T14:07:57.864Z,95297.05
2018-06-21T14:10:39.774Z,95294.26
2018-06-21T14:13:12.014Z,95298.45
2018-06-21T14:15:44.638Z,95294.70
2018-06-21T14:18:13.677Z,95287.19
2018-06-21T14:20:42.778Z,95286.54
2018-06-21T14:23:11.787Z,95286.60
2018-06-21T14:25:41.793Z,95279.34
2018-06-21T14:28:11.037Z,95278.95
2018-06-21T14:30:40.090Z,95280.08
2018-06-21T14:33:09.184Z,95285.34
2018-06-21T14:35:38.287Z,95285.13
2018-06-21T14:38:07.349Z,95300.48
2018-06-21T14:40:36.430Z,95304.77
2018-06-21T14:43:05.578Z,95313.95
2018-06-21T14:45:36.025Z,95326.91
2018-06-21T14:48:05.114Z,95330.28
2018-06-21T14:50:34.136Z,95334.38
2018-06-21T14:53:03.549Z,95333.48
2018-06-21T14:55:32.621Z,95338.62
2018-06-21T14:58:02.065Z,95341.64
2018-06-21T15:00:31.118Z,95340.70
2018-06-21T15:03:01.054Z,95341.61
2018-06-21T15:05:35.829Z,95342.81
2018-06-21T15:08:05.138Z,95338.03
2018-06-21T15:10:34.209Z,95328.53
2018-06-21T15:13:03.287Z,95330.23
2018-06-21T15:15:32.522Z,95328.02
2018-06-21T15:18:01.598Z,95332.28
2018-06-21T15:20:31.561Z,95333.22
2018-06-21T15:23:00.767Z,95332.11
2018-06-21T15:25:31.291Z,95341.23
2018-06-21T15:28:00.332Z,95340.67
2018-06-21T15:33:05.217Z,95340.22
2018-06-21T15:35:34.340Z,95343.80
2018-06-21T15:38:03.530Z,95350.28
2018-06-21T15:40:33.307Z,95350.75
2018-06-21T15:43:10.274Z,95348.59
2018-06-21T15:45:39.534Z,95355.98
2018-06-21T15:53:20.149Z,95354.69
2018-06-21T15:55:52.554Z,95346.11
2018-06-21T15:58:21.638Z,95354.39
2018-06-21T16:00:50.672Z,95358.68
2018-06-21T16:03:19.724Z,95359.39
2018-06-21T16:05:53.768Z,95358.82
2018-06-21T16:08:22.811Z,95355.04
2018-06-21T16:11:04.367Z,95354.03
2018-06-21T16:13:33.542Z,95360.41
2018-06-21T16:18:38.446Z,95358.44
2018-06-21T16:23:43.273Z,95355.19
2018-06-21T16:26:12.363Z,95357.38
2018-06-21T16:28:41.402Z,95362.62
2018-06-21T16:33:46.246Z,95363.20
2018-06-21T16:36:18.675Z,95367.49
2018-06-21T16:38:56.404Z,95368.03
2018-06-21T16:41:25.545Z,95369.54
2018-06-21T16:44:02.137Z,95382.95
2018-06-21T16:46:31.209Z,95384.47
2018-06-21T16:49:01.996Z,95383.51
2018-06-21T16:51:31.054Z,95386.28
2018-06-21T16:56:46.598Z,95387.50
2018-06-21T17:02:01.607Z,95389.28
2018-06-21T17:04:30.655Z,95387.70
2018-06-21T17:09:35.467Z,95383.03
2018-06-21T17:12:04.501Z,95385.95
2018-06-21T17:14:34.181Z,95387.27
2018-06-21T17:17:03.245Z,95387.13
2018-06-21T17:19:32.293Z,95389.73
2018-06-21T17:22:01.496Z,95386.29
2018-06-21T17:24:34.065Z,95391.05
2018-06-21T17:27:03.130Z,95395.18
2018-06-21T17:29:32.181Z,95397.11
2018-06-21T17:32:03.151Z,95392.58
2018-06-21T17:34:33.156Z,95392.78
2018-06-21T17:37:03.352Z,95391.06
2018-06-21T17:39:40.737Z,95396.34
2018-06-21T17:42:09.963Z,95399.49
2018-06-21T17:44:39.022Z,95396.52
2018-06-21T17:47:08.070Z,95398.78
2018-06-21T17:49:38.279Z,95399.75
2018-06-21T17:52:07.365Z,95402.88
2018-06-21T17:57:12.369Z,95409.11
2018-06-21T17:59:41.415Z,95414.27
2018-06-21T18:02:10.466Z,95412.95
2018-06-21T18:04:39.603Z,95415.02
2018-06-21T18:07:08.656Z,95413.88
2018-06-21T18:12:13.536Z,95426.55
2018-06-21T18:14:42.615Z,95434.86
2018-06-21T18:19:47.503Z,95449.19
2018-06-21T18:22:16.637Z,95442.80
2018-06-21T18:24:45.897Z,95445.28
2018-06-21T18:27:14.984Z,95449.14
2018-06-21T18:29:44.041Z,95458.05
2018-06-21T18:32:14.499Z,95463.47
2018-06-21T18:34:43.565Z,95475.50
2018-06-21T18:37:14.630Z,95481.64
2018-06-21T18:39:43.693Z,95486.15
2018-06-21T18:42:13.099Z,95486.28
2018-06-21T18:44:43.233Z,95492.93
2018-06-21T18:47:12.268Z,95488.66
2018-06-21T18:49:41.321Z,95494.67
2018-06-21T18:52:10.469Z,95498.67
2018-06-21T18:54:39.519Z,95496.45
2018-06-21T18:57:08.573Z,95509.06
2018-06-21T18:59:37.909Z,95514.88
2018-06-21T19:02:06.969Z,95519.99
2018-06-21T19:04:36.083Z,95530.96
2018-06-21T19:07:06.189Z,95534.97
2018-06-21T19:12:32.630Z,95541.48
2018-06-21T19:15:01.913Z,95544.98
2018-06-21T19:20:06.715Z,95559.77
2018-06-21T19:22:35.868Z,95565.73
2018-06-21T19:25:04.976Z,95564.97
2018-06-21T19:27:33.987Z,95572.44
2018-06-21T19:30:03.736Z,95573.48
2018-06-21T19:32:32.819Z,95574.95
2018-06-21T19:35:01.869Z,95582.99
2018-06-21T19:37:31.910Z,95594.13
2018-06-21T19:40:02.101Z,95594.91
2018-06-21T19:42:31.159Z,95602.12
2018-06-21T19:45:00.214Z,95600.22
2018-06-21T19:50:05.077Z,95609.76
2018-06-21T19:52:35.102Z,95615.81
2018-06-21T19:55:04.294Z,95620.23
2018-06-21T19:57:35.842Z,95629.08
2018-06-21T20:00:04.948Z,95631.36
2018-06-21T20:02:33.993Z,95626.84
2018-06-21T20:05:03.157Z,95627.13
2018-06-21T20:07:32.347Z,95627.25
2018-06-21T20:10:01.389Z,95628.03
2018-06-21T20:15:06.234Z,95630.75
2018-06-21T20:20:11.001Z,95636.64
2018-06-21T20:22:40.078Z,95635.63
2018-06-21T20:25:09.337Z,95639.09
2018-06-21T20:27:38.613Z,95642.13
2018-06-21T20:30:07.672Z,95635.56
2018-06-21T20:32:36.725Z,95640.09
2018-06-21T20:35:05.827Z,95637.61
2018-06-21T20:37:34.884Z,95636.54
2018-06-21T20:40:03.929Z,95633.53
2018-06-21T20:42:33.126Z,95640.83
2018-06-21T20:45:02.276Z,95646.40
2018-06-21T20:50:07.602Z,95642.64
2018-06-21T20:52:36.667Z,95647.34
2018-06-21T20:55:05.721Z,95648.13
2018-06-21T20:57:35.119Z,95646.91
2018-06-21T21:00:04.165Z,95641.36
2018-06-21T21:02:33.235Z,95651.25
2018-06-21T21:05:02.284Z,95658.34
2018-06-21T21:07:31.336Z,95653.80
2018-06-21T21:10:00.387Z,95655.71
2018-06-21T21:12:30.449Z,95654.91
2018-06-21T21:14:59.548Z,95662.03
2018-06-21T21:17:32.432Z,95671.37
2018-06-21T21:20:01.710Z,95679.04
2018-06-21T21:22:30.762Z,95689.38
2018-06-21T21:24:59.830Z,95692.59
2018-06-21T21:27:29.525Z,95696.22
2018-06-21T21:29:58.595Z,95697.04
2018-06-21T21:32:27.651Z,95702.68
2018-06-21T21:34:56.893Z,95695.25
2018-06-21T21:37:26.185Z,95688.34
2018-06-21T21:47:43.218Z,95701.97
2018-06-21T21:50:12.278Z,95706.14
2018-06-21T21:52:41.392Z,95711.53
2018-06-21T21:55:10.738Z,95718.72
2018-06-21T21:57:39.786Z,95738.73
2018-06-21T22:00:08.856Z,95738.69
2018-06-21T22:02:43.979Z,95736.27
2018-06-21T22:05:14.531Z,95737.98
2018-06-21T22:07:45.541Z,95740.09
2018-06-21T22:10:16.699Z,95743.40
2018-06-21T22:12:48.717Z,95752.98
2018-06-21T22:15:19.637Z,95761.83
2018-06-21T22:20:27.659Z,95761.63
2018-06-21T22:23:00.349Z,95768.55
2018-06-21T22:25:33.317Z,95774.95
2018-06-21T22:30:43.759Z,95787.86
2018-06-21T22:33:14.949Z,95787.61
2018-06-21T22:35:45.625Z,95803.09
2018-06-21T22:38:16.692Z,95810.33
2018-06-21T22:40:49.945Z,95811.41
2018-06-21T22:43:21.188Z,95818.98
2018-06-21T22:45:52.909Z,95817.33
2018-06-21T22:48:24.106Z,95823.73
2018-06-21T22:50:56.319Z,95824.22
2018-06-21T22:53:29.143Z,95821.18
2018-06-21T22:56:03.172Z,95823.55
2018-06-21T22:58:36.037Z,95835.30
2018-06-21T23:01:08.768Z,95837.20
2018-06-21T23:03:41.784Z,95839.41
2018-06-21T23:06:14.650Z,95842.25
2018-06-21T23:08:47.521Z,95836.13
2018-06-21T23:11:19.423Z,95836.25
2018-06-21T23:16:27.607Z,95845.91
2018-06-21T23:21:37.704Z,95856.17
2018-06-21T23:24:09.558Z,95858.06
2018-06-21T23:26:43.164Z,95863.11
2018-06-21T23:29:15.916Z,95871.05
2018-06-21T23:34:25.054Z,95884.09
2018-06-21T23:36:58.652Z,95891.69
2018-06-21T23:39:33.592Z,95896.98
2018-06-21T23:42:08.218Z,95898.45
2018-06-21T23:44:41.986Z,95907.78
2018-06-21T23:47:14.217Z,95906.44
2018-06-21T23:49:46.827Z,95913.69
2018-06-21T23:52:19.739Z,95916.84
2018-06-21T23:54:52.326Z,95919.94
2018-06-21T23:57:25.903Z,95930.19
2018-06-21T23:59:58.137Z,95922.95
